createdAt,value
2018-07-06T00:00:19.800Z,15.40
2018-07-06T00:03:19.696Z,15.20
2018-07-06T00:06:19.771Z,15.40
2018-07-06T00:09:19.900Z,15.50
2018-07-06T00:12:20.053Z,15.30
2018-07-06T00:15:19.988Z,15.10
2018-07-06T00:18:20.144Z,15.10
2018-07-06T00:21:20.068Z,15.10
2018-07-06T00:24:20.048Z,15.00
2018-07-06T00:27:20.349Z,15.00
2018-07-06T00:30:20.430Z,15.20
2018-07-06T00:33:20.492Z,15.20
2018-07-06T00:36:20.539Z,15.30
2018-07-06T00:39:20.305Z,15.30
2018-07-06T00:42:20.383Z,15.10
2018-07-06T00:45:20.363Z,15.00
2018-07-06T00:48:20.468Z,15.00
2018-07-06T00:51:20.351Z,15.20
2018-07-06T00:54:20.429Z,15.30
2018-07-06T00:57:20.235Z,15.10
2018-07-06T01:00:20.756Z,15.20
2018-07-06T01:03:20.581Z,15.10
2018-07-06T01:06:20.497Z,15.10
2018-07-06T01:09:20.668Z,15.30
2018-07-06T01:12:25.544Z,15.40
2018-07-06T01:15:30.683Z,15.40
2018-07-06T01:18:30.469Z,15.30
2018-07-06T01:21:30.330Z,15.10
2018-07-06T01:24:30.264Z,15.40
2018-07-06T01:27:30.176Z,15.40
2018-07-06T01:30:30.228Z,15.20
2018-07-06T01:33:30.384Z,15.10
2018-07-06T01:36:30.484Z,14.90
2018-07-06T01:39:31.248Z,14.80
2018-07-06T01:42:31.453Z,14.80
2018-07-06T01:45:31.534Z,14.80
2018-07-06T01:48:31.488Z,15.10
2018-07-06T01:51:31.500Z,15.00
2018-07-06T01:57:25.229Z,14.90
2018-07-06T02:03:19.111Z,14.90
2018-07-06T02:06:19.268Z,14.80
2018-07-06T02:09:19.332Z,14.90
2018-07-06T02:12:19.460Z,14.90
2018-07-06T02:15:19.468Z,14.90
2018-07-06T02:18:19.424Z,14.80
2018-07-06T02:21:19.480Z,14.80
2018-07-06T02:24:19.529Z,14.70
2018-07-06T02:27:19.489Z,14.90
2018-07-06T02:30:19.472Z,14.70
2018-07-06T02:33:19.393Z,14.70
2018-07-06T02:36:19.322Z,14.80
2018-07-06T02:39:19.303Z,14.80
2018-07-06T02:42:19.128Z,14.80
2018-07-06T02:45:19.204Z,14.80
2018-07-06T02:48:19.288Z,14.90
2018-07-06T02:51:19.195Z,15.00
2018-07-06T02:54:19.046Z,14.90
2018-07-06T02:57:19.027Z,14.90
2018-07-06T03:00:19.048Z,15.00
2018-07-06T03:03:18.963Z,15.20
2018-07-06T03:06:18.850Z,15.10
2018-07-06T03:09:18.967Z,15.00
2018-07-06T03:12:19.028Z,15.10
2018-07-06T03:15:19.026Z,15.10
2018-07-06T03:18:19.107Z,15.10
2018-07-06T03:21:19.264Z,15.10
2018-07-06T03:24:19.191Z,15.00
2018-07-06T03:27:19.284Z,15.00
2018-07-06T03:30:19.224Z,15.00
2018-07-06T03:33:19.268Z,15.10
2018-07-06T03:36:19.196Z,15.20
2018-07-06T03:39:19.324Z,15.10
2018-07-06T03:42:19.444Z,15.10
2018-07-06T03:45:19.552Z,15.10
2018-07-06T03:48:19.587Z,15.20
2018-07-06T03:51:19.623Z,15.20
2018-07-06T03:54:19.623Z,15.00
2018-07-06T03:57:19.968Z,15.00
2018-07-06T04:00:19.944Z,14.90
2018-07-06T04:03:19.973Z,14.90
2018-07-06T04:06:20.008Z,14.90
2018-07-06T04:09:20.030Z,14.90
2018-07-06T04:12:20.026Z,15.00
2018-07-06T04:15:20.161Z,15.10
2018-07-06T04:18:19.943Z,15.20
2018-07-06T04:21:19.824Z,15.10
2018-07-06T04:24:19.676Z,15.00
2018-07-06T04:27:19.731Z,15.00
2018-07-06T04:30:19.768Z,14.90
2018-07-06T04:33:19.764Z,15.00
2018-07-06T04:36:19.695Z,15.00
2018-07-06T04:39:19.606Z,15.00
2018-07-06T04:42:19.524Z,14.90
2018-07-06T04:45:19.645Z,14.90
2018-07-06T04:48:19.686Z,15.00
2018-07-06T04:51:19.569Z,15.00
2018-07-06T04:54:19.625Z,15.00
2018-07-06T04:57:19.546Z,15.10
2018-07-06T05:00:19.524Z,15.10
2018-07-06T05:03:19.373Z,15.10
2018-07-06T05:06:19.407Z,15.10
2018-07-06T05:09:19.414Z,15.10
2018-07-06T05:12:19.363Z,15.10
2018-07-06T05:15:19.434Z,15.00
2018-07-06T05:18:19.258Z,15.00
2018-07-06T05:21:19.331Z,15.00
2018-07-06T05:24:19.431Z,15.10
2018-07-06T05:27:19.637Z,15.10
2018-07-06T05:30:19.672Z,15.10
2018-07-06T05:33:19.949Z,15.10
2018-07-06T05:36:20.133Z,15.00
2018-07-06T05:39:20.069Z,15.10
2018-07-06T05:42:20.048Z,15.30
2018-07-06T05:45:20.347Z,15.40
2018-07-06T05:48:20.185Z,15.30
2018-07-06T05:51:20.343Z,15.10
2018-07-06T05:54:20.354Z,15.20
2018-07-06T05:57:20.337Z,15.30
2018-07-06T06:00:20.248Z,15.20
2018-07-06T06:03:20.220Z,15.10
2018-07-06T06:06:20.138Z,15.20
2018-07-06T06:11:38.909Z,15.50
2018-07-06T06:14:16.329Z,15.50
2018-07-06T06:16:53.669Z,15.50
2018-07-06T06:22:08.800Z,15.50
2018-07-06T06:24:46.280Z,15.40
2018-07-06T06:27:23.572Z,15.40
2018-07-06T06:30:00.986Z,15.40
2018-07-06T06:32:38.513Z,15.40
2018-07-06T06:35:15.843Z,15.40
2018-07-06T06:37:53.266Z,15.40
2018-07-06T06:40:30.884Z,15.30
2018-07-06T06:43:08.211Z,15.50
2018-07-06T06:45:45.776Z,15.70
2018-07-06T06:48:24.112Z,15.70
2018-07-06T06:51:01.557Z,15.50
2018-07-06T06:53:39.696Z,15.50
2018-07-06T06:56:16.974Z,15.40
2018-07-06T06:58:54.599Z,15.60
2018-07-06T07:01:32.116Z,15.60
2018-07-06T07:04:20.179Z,15.60
2018-07-06T07:06:57.798Z,15.70
2018-07-06T07:09:35.237Z,15.70
2018-07-06T07:12:12.696Z,15.90
2018-07-06T07:14:49.998Z,15.90
2018-07-06T07:17:27.665Z,15.90
2018-07-06T07:20:05.128Z,16.00
2018-07-06T07:22:42.579Z,16.00
2018-07-06T07:25:20.127Z,16.20
2018-07-06T07:30:34.492Z,16.40
2018-07-06T07:33:11.949Z,16.50
2018-07-06T07:35:49.410Z,16.60
2018-07-06T07:38:26.974Z,16.50
2018-07-06T07:41:04.428Z,16.60
2018-07-06T07:43:42.031Z,16.40
2018-07-06T07:46:19.533Z,16.60
2018-07-06T07:48:57.130Z,16.60
2018-07-06T07:52:11.068Z,16.80
2018-07-06T07:54:51.782Z,17.00
2018-07-06T07:57:29.464Z,17.20
2018-07-06T08:00:07.008Z,17.00
2018-07-06T08:02:44.529Z,17.00
2018-07-06T08:05:22.229Z,17.00
2018-07-06T08:07:59.729Z,17.00
2018-07-06T08:10:37.124Z,16.90
2018-07-06T08:13:14.694Z,16.90
2018-07-06T08:15:53.686Z,17.00
2018-07-06T08:18:31.168Z,16.90
2018-07-06T08:21:08.707Z,17.00
2018-07-06T08:23:46.282Z,17.20
2018-07-06T08:26:23.695Z,17.10
2018-07-06T08:29:01.292Z,17.10
2018-07-06T08:31:38.915Z,17.10
2018-07-06T08:34:32.862Z,17.20
2018-07-06T08:38:09.403Z,17.30
2018-07-06T08:40:46.794Z,17.30
2018-07-06T08:43:24.280Z,17.40
2018-07-06T08:46:01.664Z,17.30
2018-07-06T08:48:39.107Z,17.40
2018-07-06T08:51:16.471Z,17.60
2018-07-06T08:56:30.657Z,17.40
2018-07-06T08:59:08.098Z,17.40
2018-07-06T09:01:45.412Z,17.60
2018-07-06T09:04:23.032Z,17.40
2018-07-06T09:07:00.269Z,17.40
2018-07-06T09:09:37.912Z,17.40
2018-07-06T09:12:15.417Z,17.20
2018-07-06T09:14:52.811Z,17.00
2018-07-06T09:17:30.274Z,17.00
2018-07-06T09:20:08.049Z,17.10
2018-07-06T09:22:45.365Z,17.10
2018-07-06T09:25:22.940Z,17.20
2018-07-06T09:28:00.524Z,17.30
2018-07-06T09:30:37.949Z,17.20
2018-07-06T09:35:52.251Z,17.20
2018-07-06T09:38:29.804Z,17.10
2018-07-06T09:41:07.341Z,17.00
2018-07-06T09:43:44.813Z,17.30
2018-07-06T09:48:59.197Z,17.20
2018-07-06T09:51:36.980Z,17.10
2018-07-06T09:54:14.418Z,17.20
2018-07-06T09:56:52.132Z,17.20
2018-07-06T09:59:29.750Z,17.30
2018-07-06T10:02:07.263Z,17.20
2018-07-06T10:04:44.680Z,17.00
2018-07-06T10:07:22.253Z,17.10
2018-07-06T10:12:36.558Z,17.00
2018-07-06T10:15:14.016Z,17.00
2018-07-06T10:17:51.778Z,17.00
2018-07-06T10:20:29.404Z,17.00
2018-07-06T10:25:43.662Z,16.90
2018-07-06T10:30:51.517Z,16.90
2018-07-06T10:33:29.234Z,16.90
2018-07-06T10:36:06.695Z,17.10
2018-07-06T10:38:44.099Z,17.10
2018-07-06T10:41:21.593Z,17.10
2018-07-06T10:43:59.183Z,17.20
2018-07-06T10:46:36.599Z,17.30
2018-07-06T10:49:13.888Z,17.30
2018-07-06T10:51:51.507Z,17.20
2018-07-06T10:54:28.899Z,17.30
2018-07-06T10:57:07.084Z,17.40
2018-07-06T10:59:44.642Z,17.20
2018-07-06T11:02:22.361Z,17.30
2018-07-06T11:04:59.888Z,17.40
2018-07-06T11:07:37.426Z,17.40
2018-07-06T11:10:15.090Z,17.50
2018-07-06T11:12:52.707Z,17.50
2018-07-06T11:15:30.156Z,17.60
2018-07-06T11:18:07.918Z,17.60
2018-07-06T11:20:45.480Z,17.60
2018-07-06T11:23:23.125Z,17.70
2018-07-06T11:26:00.559Z,17.80
2018-07-06T11:28:38.025Z,17.80
2018-07-06T11:31:15.540Z,17.90
2018-07-06T11:33:53.146Z,17.80
2018-07-06T11:36:30.781Z,17.80
2018-07-06T11:39:09.179Z,17.80
2018-07-06T11:41:48.260Z,17.80
2018-07-06T11:44:25.788Z,17.70
2018-07-06T11:47:03.333Z,17.50
2018-07-06T11:49:40.724Z,17.50
2018-07-06T11:52:18.196Z,17.50
2018-07-06T11:54:55.699Z,17.60
2018-07-06T11:57:33.430Z,17.50
2018-07-06T12:00:10.989Z,17.50
2018-07-06T12:02:48.559Z,17.50
2018-07-06T12:05:27.144Z,17.60
2018-07-06T12:08:04.797Z,17.60
2018-07-06T12:10:42.344Z,17.50
2018-07-06T12:13:21.876Z,17.60
2018-07-06T12:15:59.176Z,17.70
2018-07-06T12:18:36.682Z,17.70
2018-07-06T12:21:14.428Z,17.60
2018-07-06T12:23:51.917Z,17.60
2018-07-06T12:26:29.244Z,17.50
2018-07-06T12:29:06.828Z,17.50
2018-07-06T12:31:44.316Z,17.50
2018-07-06T12:34:21.752Z,17.50
2018-07-06T12:36:59.238Z,17.60
2018-07-06T12:39:36.791Z,17.70
2018-07-06T12:42:14.203Z,17.50
2018-07-06T12:44:51.525Z,17.60
2018-07-06T12:47:28.993Z,17.60
2018-07-06T12:50:06.673Z,17.60
2018-07-06T12:52:44.091Z,17.60
2018-07-06T12:55:21.606Z,17.70
2018-07-06T12:57:59.111Z,17.70
2018-07-06T13:00:36.775Z,17.60
2018-07-06T13:03:14.336Z,17.70
2018-07-06T13:05:51.881Z,17.50
2018-07-06T13:08:29.329Z,17.50
2018-07-06T13:11:06.909Z,17.50
2018-07-06T13:13:44.429Z,17.30
2018-07-06T13:16:21.787Z,17.40
2018-07-06T13:21:36.468Z,17.10
2018-07-06T13:24:14.027Z,17.40
2018-07-06T13:26:51.829Z,17.40
2018-07-06T13:29:29.302Z,17.40
2018-07-06T13:32:07.080Z,17.40
2018-07-06T13:34:44.479Z,17.50
2018-07-06T13:37:22.058Z,17.40
2018-07-06T13:39:59.841Z,17.50
2018-07-06T13:42:37.165Z,17.40
2018-07-06T13:45:14.958Z,17.30
2018-07-06T13:47:52.289Z,17.20
2018-07-06T13:50:29.789Z,17.30
2018-07-06T13:53:07.423Z,17.20
2018-07-06T13:55:44.690Z,17.20
2018-07-06T13:58:22.091Z,17.30
2018-07-06T14:00:59.678Z,17.30
2018-07-06T14:03:37.371Z,17.30
2018-07-06T14:06:15.062Z,17.30
2018-07-06T14:08:52.321Z,17.20
2018-07-06T14:11:29.731Z,17.40
2018-07-06T14:14:07.118Z,17.50
2018-07-06T14:16:44.581Z,17.40
2018-07-06T14:19:22.025Z,17.40
2018-07-06T14:21:59.542Z,17.20
2018-07-06T14:24:36.882Z,17.30
2018-07-06T14:27:14.500Z,17.40
2018-07-06T14:29:51.937Z,17.20
2018-07-06T14:32:29.350Z,17.10
2018-07-06T14:35:06.854Z,16.90
2018-07-06T14:37:44.292Z,16.90
2018-07-06T14:40:21.925Z,16.80
2018-07-06T14:42:59.280Z,16.80
2018-07-06T14:45:36.732Z,16.80
2018-07-06T14:48:14.187Z,17.00
2018-07-06T14:50:52.481Z,16.80
2018-07-06T14:53:30.050Z,16.80
2018-07-06T14:56:07.472Z,16.80
2018-07-06T15:01:21.741Z,16.90
2018-07-06T15:03:59.280Z,16.70
2018-07-06T15:06:36.960Z,16.90
2018-07-06T15:09:14.324Z,17.00
2018-07-06T15:11:51.687Z,17.00
2018-07-06T15:14:29.234Z,17.00
2018-07-06T15:17:06.751Z,16.80
2018-07-06T15:19:44.231Z,17.00
2018-07-06T15:22:21.594Z,16.90
2018-07-06T15:24:59.025Z,16.90
2018-07-06T15:27:36.462Z,16.80
2018-07-06T15:30:14.119Z,16.60
2018-07-06T15:32:51.629Z,16.40
2018-07-06T15:35:29.133Z,16.20
2018-07-06T15:38:06.612Z,16.30
2018-07-06T15:40:44.132Z,16.30
2018-07-06T15:43:21.545Z,16.30
2018-07-06T15:45:59.121Z,16.20
2018-07-06T15:48:36.837Z,16.00
2018-07-06T15:51:14.464Z,16.10
2018-07-06T15:53:52.173Z,16.10
2018-07-06T15:59:06.757Z,16.10
2018-07-06T16:01:44.327Z,15.90
2018-07-06T16:04:21.666Z,15.90
2018-07-06T16:06:59.293Z,16.00
2018-07-06T16:09:36.909Z,16.10
2018-07-06T16:12:14.375Z,16.30
2018-07-06T16:14:51.828Z,16.30
2018-07-06T16:17:29.382Z,16.40
2018-07-06T16:20:06.762Z,16.30
2018-07-06T16:22:44.201Z,16.20
2018-07-06T16:25:21.670Z,16.20
2018-07-06T16:27:59.018Z,16.20
2018-07-06T16:30:36.518Z,16.40
2018-07-06T16:33:13.934Z,16.50
2018-07-06T16:38:28.077Z,15.90
2018-07-06T16:41:05.581Z,15.90
2018-07-06T16:43:43.100Z,15.90
2018-07-06T16:48:57.508Z,16.00
2018-07-06T16:51:34.981Z,16.10
2018-07-06T16:54:12.941Z,16.20
2018-07-06T16:56:50.341Z,16.10
2018-07-06T16:59:27.790Z,16.10
2018-07-06T17:02:05.198Z,16.00
2018-07-06T17:04:42.639Z,16.00
2018-07-06T17:07:20.054Z,16.20
2018-07-06T17:09:57.749Z,16.10
2018-07-06T17:12:35.174Z,16.20
2018-07-06T17:15:12.532Z,16.20
2018-07-06T17:17:50.019Z,16.10
2018-07-06T17:20:27.438Z,16.10
2018-07-06T17:23:04.944Z,16.30
2018-07-06T17:25:42.185Z,16.20
2018-07-06T17:30:56.478Z,15.80
2018-07-06T17:33:33.857Z,15.80
2018-07-06T17:36:11.477Z,15.80
2018-07-06T17:38:49.030Z,15.70
2018-07-06T17:41:26.467Z,15.60
2018-07-06T17:44:03.964Z,15.60
2018-07-06T17:46:41.265Z,15.60
2018-07-06T17:49:18.648Z,15.60
2018-07-06T17:51:56.112Z,15.60
2018-07-06T17:57:10.474Z,15.60
2018-07-06T17:59:47.965Z,15.50
2018-07-06T18:02:25.211Z,15.50
2018-07-06T18:05:02.596Z,15.40
2018-07-06T18:07:40.015Z,15.60
2018-07-06T18:10:17.582Z,15.50
2018-07-06T18:12:55.213Z,15.50
2018-07-06T18:15:32.817Z,15.50
2018-07-06T18:18:11.150Z,15.60
2018-07-06T18:20:49.681Z,15.50
2018-07-06T18:23:28.679Z,15.50
2018-07-06T18:26:06.164Z,15.60
2018-07-06T18:28:43.541Z,15.40
2018-07-06T18:31:21.381Z,15.50
2018-07-06T18:33:58.787Z,15.50
2018-07-06T18:36:36.229Z,15.50
2018-07-06T18:39:13.993Z,15.70
2018-07-06T18:41:51.734Z,15.60
2018-07-06T18:44:29.882Z,15.80
2018-07-06T18:49:44.521Z,15.80
2018-07-06T18:52:22.333Z,15.60
2018-07-06T18:55:05.758Z,15.60
2018-07-06T18:57:44.449Z,15.40
2018-07-06T19:00:22.851Z,15.40
2018-07-06T19:03:00.292Z,15.40
2018-07-06T19:05:37.701Z,15.30
2018-07-06T19:08:15.359Z,15.40
2018-07-06T19:10:52.834Z,15.50
2018-07-06T19:13:30.292Z,15.60
2018-07-06T19:16:07.871Z,15.70
2018-07-06T19:18:45.503Z,15.80
2018-07-06T19:21:23.179Z,15.80
2018-07-06T19:24:03.520Z,15.40
2018-07-06T19:26:42.258Z,15.40
2018-07-06T19:29:19.750Z,15.30
2018-07-06T19:31:57.389Z,15.30
2018-07-06T19:34:34.796Z,15.20
2018-07-06T19:37:13.098Z,15.20
2018-07-06T19:39:50.622Z,15.20
2018-07-06T19:42:28.405Z,15.20
2018-07-06T19:45:06.176Z,15.10
2018-07-06T19:47:43.631Z,15.00
2018-07-06T19:50:21.072Z,15.10
2018-07-06T19:52:58.702Z,15.00
2018-07-06T19:55:38.237Z,15.00
2018-07-06T19:58:15.763Z,15.00
2018-07-06T20:27:32.335Z,15.20
2018-07-06T20:30:10.733Z,14.80
2018-07-06T20:32:48.950Z,14.90
2018-07-06T20:38:03.242Z,14.60
2018-07-06T20:40:41.750Z,14.50
2018-07-06T20:43:19.334Z,14.50
2018-07-06T20:45:56.841Z,14.40
2018-07-06T20:48:34.440Z,14.40
2018-07-06T20:51:11.794Z,14.40
2018-07-06T20:53:49.404Z,14.50
2018-07-06T20:56:26.793Z,14.50
2018-07-06T20:59:04.338Z,14.60
2018-07-06T21:01:41.970Z,14.50
2018-07-06T21:04:19.404Z,14.50
2018-07-06T21:06:56.904Z,14.50
2018-07-06T21:09:34.349Z,14.60
2018-07-06T21:12:11.922Z,14.60
2018-07-06T21:14:49.556Z,14.40
2018-07-06T21:17:26.997Z,14.60
2018-07-06T21:20:04.631Z,14.80
2018-07-06T21:22:41.929Z,15.00
2018-07-06T21:25:19.249Z,15.00
2018-07-06T21:27:56.706Z,15.00
2018-07-06T21:33:10.946Z,15.10
2018-07-06T21:35:48.570Z,15.00
2018-07-06T21:38:26.109Z,14.70
2018-07-06T21:41:03.716Z,14.70
2018-07-06T21:43:41.269Z,14.40
2018-07-06T21:46:18.769Z,14.40
2018-07-06T21:48:56.325Z,14.50
2018-07-06T21:51:33.763Z,14.70
2018-07-06T21:54:11.137Z,14.60
2018-07-06T21:56:48.610Z,14.80
2018-07-06T21:59:26.008Z,14.90
2018-07-06T22:02:03.610Z,14.90
2018-07-06T22:04:41.013Z,14.90
2018-07-06T22:07:18.418Z,14.80
2018-07-06T22:09:55.882Z,15.00
2018-07-06T22:12:33.270Z,15.00
2018-07-06T22:15:10.557Z,15.10
2018-07-06T22:17:48.037Z,14.80
2018-07-06T22:20:25.373Z,14.70
2018-07-06T22:23:02.997Z,14.50
2018-07-06T22:25:40.481Z,14.80
2018-07-06T22:28:17.924Z,14.90
2018-07-06T22:30:55.616Z,14.70
2018-07-06T22:33:33.121Z,14.70
2018-07-06T22:36:10.729Z,14.70
2018-07-06T22:38:48.249Z,14.70
2018-07-06T22:41:25.631Z,14.70
2018-07-06T22:44:03.565Z,14.80
2018-07-06T22:46:41.154Z,15.00
2018-07-06T22:49:18.660Z,15.00
2018-07-06T22:51:56.049Z,15.00
2018-07-06T22:54:33.410Z,14.90
2018-07-06T22:57:11.521Z,14.80
2018-07-06T22:59:49.082Z,14.90
2018-07-06T23:02:26.734Z,14.90
2018-07-06T23:05:17.484Z,14.90
2018-07-06T23:07:55.609Z,14.80
2018-07-06T23:10:33.146Z,14.80
2018-07-06T23:13:10.709Z,14.90
2018-07-06T23:15:48.089Z,14.90
2018-07-06T23:18:25.525Z,15.00
2018-07-06T23:21:03.077Z,15.20
2018-07-06T23:23:40.441Z,15.10
2018-07-06T23:26:17.951Z,15.10
2018-07-06T23:28:55.446Z,15.20
2018-07-06T23:31:32.868Z,15.30
2018-07-06T23:34:11.130Z,15.20
2018-07-06T23:36:48.634Z,15.20
2018-07-06T23:39:27.021Z,15.10
2018-07-06T23:42:04.450Z,15.10
2018-07-06T23:44:41.912Z,15.00
2018-07-06T23:47:19.454Z,15.00
2018-07-06T23:49:56.880Z,15.00
2018-07-06T23:52:34.124Z,15.00
2018-07-06T23:55:11.328Z,15.10
2018-07-06T23:57:49.441Z,15.00
